Time;durP1;ratioP1;P1;durP2;ratioP2;P2;SDS_P1;SDS_P2;PMS_P1;PMS_P2;Temp;Humidity;BMP_temperature;BMP_pressure;BME280_temperature;BME280_humidity;BME280_pressure;Samples;Min_cycle;Max_cycle;Signal;HPM_P1;HPM_P2
2022/05/06 00:01:34;;;;;;;8.23;7.67;;;13.10;96.70;;;;;;5013273;28;20872;-69
2022/05/06 00:04:00;;;;;;;8.13;7.33;;;13.10;97.00;;;;;;5011591;28;20441;-69
2022/05/06 00:06:28;;;;;;;8.30;7.60;;;13.00;97.00;;;;;;5013348;28;20187;-69
2022/05/06 00:08:55;;;;;;;7.77;7.07;;;13.10;97.10;;;;;;5012710;28;20413;-69
2022/05/06 00:11:21;;;;;;;7.80;7.07;;;13.00;97.00;;;;;;5013271;28;20514;-68
2022/05/06 00:13:46;;;;;;;8.67;7.87;;;13.00;97.20;;;;;;5011834;28;20526;-69
2022/05/06 00:16:12;;;;;;;8.57;7.80;;;13.00;97.30;;;;;;5013355;28;20421;-69
2022/05/06 00:18:38;;;;;;;8.37;7.67;;;13.00;97.30;;;;;;5013125;28;20187;-69
2022/05/06 00:21:03;;;;;;;8.07;7.30;;;13.00;97.20;;;;;;5011379;28;20233;-68
2022/05/06 00:23:29;;;;;;;7.87;7.10;;;13.00;97.20;;;;;;5011348;28;20183;-69
2022/05/06 00:25:56;;;;;;;8.17;6.97;;;12.90;97.20;;;;;;5010444;28;20222;-69
2022/05/06 00:28:21;;;;;;;9.10;7.20;;;12.90;97.30;;;;;;5013019;28;20172;-69
2022/05/06 00:30:47;;;;;;;7.43;6.73;;;12.90;97.20;;;;;;5012367;28;20465;-68
2022/05/06 00:33:13;;;;;;;7.73;7.10;;;12.80;97.40;;;;;;5012165;28;20909;-68
2022/05/06 00:35:41;;;;;;;8.90;7.80;;;12.80;97.10;;;;;;5012291;28;20988;-69
2022/05/06 00:38:07;;;;;;;8.40;7.60;;;12.80;97.20;;;;;;5011850;28;20428;-69
2022/05/06 00:40:33;;;;;;;8.73;7.77;;;12.70;97.30;;;;;;5012741;28;20425;-69
2022/05/06 00:42:58;;;;;;;7.53;6.73;;;12.70;97.20;;;;;;5011677;28;20414;-69
2022/05/06 00:45:31;;;;;;;8.40;7.70;;;12.70;97.40;;;;;;5009713;28;20368;-69
2022/05/06 00:47:57;;;;;;;8.83;8.03;;;12.70;97.70;;;;;;5011377;28;20263;-69
2022/05/06 00:50:22;;;;;;;7.60;6.60;;;12.70;97.70;;;;;;5012702;28;20489;-69
2022/05/06 00:52:48;;;;;;;7.37;6.67;;;12.70;97.80;;;;;;5011891;28;20440;-69
2022/05/06 00:55:14;;;;;;;8.13;7.40;;;12.60;98.00;;;;;;5016137;28;20257;-69
2022/05/06 00:57:40;;;;;;;8.87;8.07;;;12.60;97.70;;;;;;5015384;28;20182;-69
2022/05/06 01:00:18;;;;;;;8.33;7.63;;;12.70;97.80;;;;;;5015245;28;20291;-69
2022/05/06 01:02:48;;;;;;;8.67;7.87;;;12.60;97.80;;;;;;5015730;28;20747;-74
2022/05/06 01:05:15;;;;;;;7.80;7.20;;;12.50;97.90;;;;;;5014962;28;20540;-69
2022/05/06 01:07:43;;;;;;;8.00;7.30;;;12.50;97.80;;;;;;5015924;28;20423;-68
2022/05/06 01:10:09;;;;;;;9.20;6.50;;;12.50;97.80;;;;;;5014101;28;20440;-69
2022/05/06 01:12:35;;;;;;;8.23;7.60;;;12.40;97.90;;;;;;5015733;28;20432;-69
2022/05/06 01:15:00;;;;;;;7.00;6.50;;;12.40;97.70;;;;;;5014277;28;20852;-69
2022/05/06 01:17:26;;;;;;;7.23;6.53;;;12.40;97.80;;;;;;5015346;28;20187;-68
2022/05/06 01:19:52;;;;;;;9.73;6.73;;;12.30;97.90;;;;;;5015142;28;20179;-69
2022/05/06 01:22:18;;;;;;;7.30;6.53;;;12.30;97.90;;;;;;5014872;28;20237;-69
2022/05/06 01:24:44;;;;;;;7.20;6.60;;;12.20;97.80;;;;;;5015619;28;20628;-73
2022/05/06 01:27:25;;;;;;;7.37;6.77;;;12.30;97.80;;;;;;5015300;28;20445;-69
2022/05/06 01:29:52;;;;;;;7.60;6.90;;;12.20;98.10;;;;;;5014072;28;20488;-69
2022/05/06 01:32:18;;;;;;;7.20;6.60;;;12.20;98.30;;;;;;5015731;28;20406;-69
2022/05/06 01:34:46;;;;;;;9.00;6.30;;;12.10;98.30;;;;;;5013669;28;20438;-69
2022/05/06 01:37:15;;;;;;;7.70;6.83;;;12.10;98.20;;;;;;5014098;28;20425;-69
2022/05/06 01:39:46;;;;;;;7.47;6.80;;;12.10;98.20;;;;;;5015342;28;20411;-68
2022/05/06 01:42:13;;;;;;;7.73;6.90;;;12.00;98.40;;;;;;5014939;28;20454;-68
2022/05/06 01:44:45;;;;;;;7.27;6.60;;;12.00;98.60;;;;;;5014762;28;20910;-69
2022/05/06 01:47:17;;;;;;;7.20;6.60;;;12.00;98.70;;;;;;5014673;28;20429;-68
2022/05/06 01:49:45;;;;;;;7.23;6.17;;;12.00;98.50;;;;;;5015773;28;20508;-69
2022/05/06 01:52:15;;;;;;;7.00;6.50;;;11.90;98.60;;;;;;5014522;28;20426;-68
2022/05/06 01:54:41;;;;;;;8.43;7.63;;;11.90;98.50;;;;;;5014362;28;20427;-69
2022/05/06 01:57:06;;;;;;;7.97;7.27;;;12.00;98.60;;;;;;5014224;28;20489;-69
2022/05/06 01:59:32;;;;;;;7.27;6.77;;;11.90;98.50;;;;;;5014135;28;20536;-69
2022/05/06 02:01:58;;;;;;;8.03;7.27;;;11.90;98.40;;;;;;5012949;28;20216;-69
2022/05/06 02:07:07;;;;;;;7.63;6.93;;;11.80;98.30;;;;;;5012894;28;20186;-69
2022/05/06 02:09:33;;;;;;;8.03;7.43;;;11.80;98.40;;;;;;5015062;28;20417;-69
2022/05/06 02:11:59;;;;;;;7.30;6.60;;;11.70;98.60;;;;;;5014182;28;20638;-69
2022/05/06 02:14:24;;;;;;;8.50;7.77;;;11.70;98.60;;;;;;5014719;28;20181;-69
2022/05/06 02:16:50;;;;;;;9.37;6.83;;;11.80;98.60;;;;;;5012200;28;20239;-75
2022/05/06 02:19:16;;;;;;;7.33;6.73;;;11.70;98.70;;;;;;5015057;28;20592;-69
2022/05/06 02:21:41;;;;;;;7.40;6.70;;;11.70;98.90;;;;;;5014826;28;20202;-69
2022/05/06 02:24:07;;;;;;;7.53;6.67;;;11.70;98.90;;;;;;5013038;28;20276;-69
2022/05/06 02:26:33;;;;;;;6.73;6.13;;;11.70;99.00;;;;;;5014673;28;20183;-69
2022/05/06 02:28:59;;;;;;;7.30;6.60;;;11.70;98.90;;;;;;5013919;28;20442;-69
2022/05/06 02:34:15;;;;;;;7.17;6.47;;;11.70;98.60;;;;;;5013839;28;20174;-68
2022/05/06 02:36:41;;;;;;;7.93;7.23;;;11.60;98.70;;;;;;5014668;28;20413;-69
2022/05/06 02:39:07;;;;;;;7.03;6.43;;;11.60;98.90;;;;;;5013262;28;20476;-68
2022/05/06 02:41:33;;;;;;;7.80;7.00;;;11.60;98.80;;;;;;5013093;28;20473;-68
2022/05/06 02:43:58;;;;;;;7.53;6.93;;;11.60;98.80;;;;;;5012743;28;20196;-69
2022/05/06 02:46:25;;;;;;;6.93;6.33;;;11.60;98.90;;;;;;5014699;28;20564;-69
2022/05/06 02:48:50;;;;;;;7.23;6.53;;;11.60;99.10;;;;;;5012895;28;20263;-74
2022/05/06 02:51:16;;;;;;;11.53;6.30;;;11.60;98.90;;;;;;5013428;28;20434;-69
2022/05/06 02:53:42;;;;;;;6.40;5.80;;;11.50;98.80;;;;;;5012424;28;20447;-68
2022/05/06 02:56:08;;;;;;;7.67;6.20;;;11.50;99.00;;;;;;5013209;28;20191;-68
2022/05/06 02:58:33;;;;;;;7.10;6.50;;;11.50;99.10;;;;;;5014406;28;20189;-69
2022/05/06 03:00:59;;;;;;;7.33;6.73;;;11.50;99.00;;;;;;5011968;28;20234;-69
2022/05/06 03:03:25;;;;;;;7.40;6.80;;;11.50;99.00;;;;;;5012914;28;20210;-68
2022/05/06 03:05:51;;;;;;;7.03;6.43;;;11.50;98.70;;;;;;5013763;28;20178;-75
2022/05/06 03:08:16;;;;;;;8.50;7.80;;;11.40;98.90;;;;;;5013559;28;20420;-68
2022/05/06 03:10:42;;;;;;;7.03;6.27;;;11.40;99.00;;;;;;5014149;28;20176;-69
2022/05/06 03:13:08;;;;;;;7.90;7.20;;;11.40;98.90;;;;;;5012114;28;20221;-68
2022/05/06 03:15:35;;;;;;;7.30;6.70;;;11.30;99.00;;;;;;5013376;28;20782;-68
2022/05/06 03:18:01;;;;;;;8.77;7.87;;;11.40;99.20;;;;;;5012706;28;20539;-68
2022/05/06 03:20:28;;;;;;;6.97;6.30;;;11.40;99.30;;;;;;5014044;28;20431;-68
2022/05/06 03:22:53;;;;;;;7.87;7.17;;;11.30;99.00;;;;;;5013120;28;20182;-74
2022/05/06 03:25:20;;;;;;;7.53;6.83;;;11.30;98.80;;;;;;5013441;28;20489;-68
2022/05/06 03:30:47;;;;;;;7.53;6.90;;;11.20;99.10;;;;;;4953062;29;20952;-68
2022/05/06 03:33:15;;;;;;;7.87;7.27;;;11.20;99.30;;;;;;5000198;28;20425;-68
2022/05/06 03:35:41;;;;;;;8.00;7.30;;;11.20;99.30;;;;;;5013517;28;20814;-68
2022/05/06 03:38:07;;;;;;;8.13;7.43;;;11.10;99.10;;;;;;5011060;28;20440;-69
2022/05/06 03:40:33;;;;;;;8.00;7.20;;;11.10;99.30;;;;;;5013273;28;20418;-68
2022/05/06 03:43:00;;;;;;;8.33;7.53;;;11.10;99.60;;;;;;5011564;28;20426;-69
2022/05/06 03:45:25;;;;;;;7.77;7.17;;;11.10;99.80;;;;;;5013005;28;20886;-69
2022/05/06 03:47:52;;;;;;;9.67;8.87;;;11.10;99.60;;;;;;5013401;28;20416;-68
2022/05/06 03:53:02;;;;;;;8.40;7.60;;;11.00;99.80;;;;;;5012327;28;20420;-69
2022/05/06 03:55:28;;;;;;;7.87;7.17;;;11.10;99.90;;;;;;5013086;28;20832;-68
2022/05/06 03:57:54;;;;;;;8.03;7.33;;;11.00;99.70;;;;;;5011963;28;20538;-75
2022/05/06 04:00:20;;;;;;;8.60;7.80;;;11.10;99.70;;;;;;5012655;28;20414;-68
2022/05/06 04:02:47;;;;;;;9.07;7.93;;;11.00;99.90;;;;;;5012087;28;20474;-68
2022/05/06 04:05:12;;;;;;;8.10;7.40;;;11.10;99.90;;;;;;5012123;28;20176;-69
2022/05/06 04:07:38;;;;;;;8.23;7.53;;;11.00;99.90;;;;;;5013010;28;20421;-68
2022/05/06 04:10:05;;;;;;;8.47;7.67;;;11.00;99.90;;;;;;5012113;28;20639;-69
2022/05/06 04:12:31;;;;;;;8.33;7.53;;;11.00;99.90;;;;;;5012153;28;20189;-68
2022/05/06 04:14:57;;;;;;;7.73;6.90;;;11.00;99.90;;;;;;5012314;28;20514;-75
2022/05/06 04:17:22;;;;;;;9.50;8.70;;;11.00;99.90;;;;;;5012662;28;20762;-68
2022/05/06 04:25:19;;;;;;;10.97;8.10;;;11.00;99.90;;;;;;5011808;28;20413;-68
2022/05/06 04:27:45;;;;;;;9.03;8.13;;;11.00;99.90;;;;;;5011496;28;20482;-68
2022/05/06 04:30:12;;;;;;;9.40;8.27;;;11.00;99.90;;;;;;5011134;28;20828;-69
2022/05/06 04:32:38;;;;;;;8.73;7.83;;;11.00;99.90;;;;;;5011620;28;20440;-68
2022/05/06 04:35:05;;;;;;;9.13;8.13;;;11.00;99.90;;;;;;5011306;28;20455;-69
2022/05/06 04:37:35;;;;;;;9.30;8.37;;;11.00;99.90;;;;;;5011188;28;20425;-69
2022/05/06 04:40:01;;;;;;;9.77;8.77;;;11.00;99.90;;;;;;5011646;28;20414;-70
2022/05/06 04:42:27;;;;;;;9.30;8.33;;;11.10;99.90;;;;;;5010332;28;20554;-69
2022/05/06 04:44:53;;;;;;;10.00;9.20;;;11.10;99.90;;;;;;5012217;28;20455;-72
2022/05/06 04:47:19;;;;;;;12.23;9.40;;;11.10;99.90;;;;;;5025149;28;20520;-69
2022/05/06 04:49:44;;;;;;;9.03;8.13;;;11.10;99.90;;;;;;5010754;28;20484;-69
2022/05/06 04:52:10;;;;;;;9.73;8.80;;;11.10;99.90;;;;;;5009603;28;20194;-68
2022/05/06 04:54:36;;;;;;;9.20;8.40;;;11.10;99.90;;;;;;5011463;28;20174;-68
2022/05/06 04:57:02;;;;;;;11.20;8.20;;;11.20;99.90;;;;;;5010884;28;20233;-69
2022/05/06 04:59:27;;;;;;;9.67;8.67;;;11.20;99.90;;;;;;5011119;28;20643;-68
2022/05/06 05:01:53;;;;;;;10.60;8.90;;;11.20;99.90;;;;;;5011217;28;20975;-69
2022/05/06 05:04:19;;;;;;;9.10;8.10;;;11.20;99.90;;;;;;5010672;28;20182;-68
2022/05/06 05:06:45;;;;;;;9.30;7.83;;;11.20;99.90;;;;;;5010578;28;20183;-68
2022/05/06 05:09:11;;;;;;;12.00;10.17;;;11.20;99.90;;;;;;5010081;28;20175;-68
2022/05/06 05:11:36;;;;;;;9.70;8.70;;;11.20;99.90;;;;;;5008705;28;20856;-72
2022/05/06 05:14:04;;;;;;;7.83;7.13;;;11.20;99.90;;;;;;5009723;28;20519;-69
2022/05/06 05:16:30;;;;;;;8.63;7.83;;;11.20;99.90;;;;;;5011259;28;20186;-68
2022/05/06 05:18:55;;;;;;;9.70;7.43;;;11.20;99.90;;;;;;5012292;28;20436;-68
2022/05/06 05:21:21;;;;;;;9.70;8.80;;;11.30;99.90;;;;;;5011680;28;20209;-72
2022/05/06 05:23:47;;;;;;;8.07;7.33;;;11.30;99.90;;;;;;5013542;28;20241;-68
2022/05/06 05:26:13;;;;;;;9.40;8.40;;;11.30;99.90;;;;;;5009560;28;20641;-68
2022/05/06 05:28:38;;;;;;;11.77;8.20;;;11.40;99.90;;;;;;5011910;28;20217;-68
2022/05/06 05:31:04;;;;;;;8.37;7.57;;;11.40;99.90;;;;;;5010491;28;20206;-69
2022/05/06 05:33:30;;;;;;;10.80;8.63;;;11.40;99.90;;;;;;5010850;28;20200;-69
2022/05/06 05:35:56;;;;;;;9.00;8.23;;;11.50;99.90;;;;;;5011852;28;20515;-68
2022/05/06 05:38:22;;;;;;;9.97;9.17;;;11.50;99.90;;;;;;5010328;28;20515;-68
2022/05/06 05:40:48;;;;;;;10.00;9.00;;;11.50;99.90;;;;;;5013202;28;20206;-68
2022/05/06 05:48:42;;;;;;;8.70;7.90;;;11.80;99.90;;;;;;5005806;28;20465;-69
2022/05/06 05:51:08;;;;;;;7.73;7.00;;;11.90;99.80;;;;;;5014308;28;20467;-69
2022/05/06 05:53:34;;;;;;;12.20;7.70;;;11.90;99.60;;;;;;5014820;28;20462;-72
2022/05/06 05:56:00;;;;;;;7.63;6.83;;;12.00;99.60;;;;;;5014329;28;20429;-79
2022/05/06 05:58:26;;;;;;;9.50;8.70;;;12.10;99.30;;;;;;5014649;28;20440;-68
2022/05/06 06:00:52;;;;;;;9.73;8.83;;;12.20;99.20;;;;;;5014958;28;20465;-68
2022/05/06 06:03:18;;;;;;;9.93;9.13;;;12.30;99.80;;;;;;5014298;28;20478;-68
2022/05/06 06:05:44;;;;;;;9.50;8.60;;;12.40;99.40;;;;;;5015485;28;20420;-68
2022/05/06 06:08:10;;;;;;;9.03;8.23;;;12.40;99.20;;;;;;5012994;28;20434;-68
2022/05/06 06:10:36;;;;;;;9.97;9.03;;;12.50;99.00;;;;;;5012700;28;20430;-68
2022/05/06 06:13:04;;;;;;;9.07;8.17;;;12.60;99.10;;;;;;5010403;28;20441;-75
2022/05/06 06:15:31;;;;;;;8.80;8.10;;;12.60;99.30;;;;;;5014623;28;20786;-68
2022/05/06 06:17:56;;;;;;;9.73;8.83;;;12.70;99.20;;;;;;5011725;28;20434;-68
2022/05/06 06:20:23;;;;;;;9.17;8.27;;;12.80;98.90;;;;;;5012950;28;20433;-69
2022/05/06 06:22:52;;;;;;;9.80;9.00;;;12.80;98.70;;;;;;5009742;28;20291;-72
2022/05/06 06:25:18;;;;;;;12.80;8.00;;;12.80;99.00;;;;;;5014374;28;20431;-72
2022/05/06 06:27:44;;;;;;;9.87;8.43;;;12.90;99.30;;;;;;5014431;28;20931;-72
2022/05/06 06:30:11;;;;;;;9.03;8.33;;;13.00;99.20;;;;;;5011870;28;20667;-72
2022/05/06 06:32:37;;;;;;;9.60;8.70;;;13.00;98.70;;;;;;5014188;28;20193;-72
2022/05/06 06:35:03;;;;;;;10.60;9.20;;;13.10;98.50;;;;;;5012849;28;20436;-73
2022/05/06 06:37:31;;;;;;;9.87;8.97;;;13.20;98.30;;;;;;5014377;28;20210;-72
2022/05/06 06:39:57;;;;;;;10.50;9.47;;;13.20;98.30;;;;;;4994939;28;20436;-72
2022/05/06 06:42:23;;;;;;;9.53;8.70;;;13.30;98.50;;;;;;5017425;28;20871;-72
2022/05/06 06:44:49;;;;;;;11.07;9.93;;;13.40;99.00;;;;;;5014405;28;20186;-72
2022/05/06 06:47:15;;;;;;;9.60;8.70;;;13.50;98.70;;;;;;5012185;28;20434;-72
2022/05/06 06:49:41;;;;;;;9.93;9.03;;;13.60;99.10;;;;;;5012587;28;20478;-72
2022/05/06 06:52:07;;;;;;;12.67;8.97;;;13.60;98.80;;;;;;5013105;28;20190;-72
2022/05/06 06:54:33;;;;;;;10.60;9.50;;;13.80;98.10;;;;;;5012515;28;20215;-72
2022/05/06 06:56:59;;;;;;;10.40;9.20;;;13.80;98.20;;;;;;5013076;28;20967;-70
2022/05/06 06:59:24;;;;;;;8.97;8.07;;;13.90;97.30;;;;;;5013001;28;20437;-74
2022/05/06 07:01:50;;;;;;;10.27;9.27;;;14.00;96.70;;;;;;5013014;28;20297;-74
2022/05/06 07:04:16;;;;;;;9.13;8.20;;;14.10;96.60;;;;;;5011715;28;20472;-73
2022/05/06 07:12:11;;;;;;;9.13;8.33;;;14.50;97.00;;;;;;5010048;28;20798;-73
2022/05/06 07:14:36;;;;;;;9.87;8.97;;;14.60;97.10;;;;;;5027284;28;20445;-73
2022/05/06 07:17:05;;;;;;;10.00;9.00;;;14.70;96.40;;;;;;5013088;28;20193;-73
2022/05/06 07:19:31;;;;;;;10.50;9.30;;;14.90;97.00;;;;;;5012463;28;20191;-74
2022/05/06 07:21:57;;;;;;;10.33;9.33;;;15.00;97.00;;;;;;5013016;28;20505;-70
2022/05/06 07:24:24;;;;;;;9.83;8.83;;;15.10;96.50;;;;;;5011944;28;20459;-70
2022/05/06 07:26:50;;;;;;;12.63;7.70;;;15.20;96.80;;;;;;5012654;28;20571;-70
2022/05/06 07:29:16;;;;;;;8.20;7.50;;;15.40;95.70;;;;;;5011392;28;20839;-72
2022/05/06 07:31:43;;;;;;;9.33;8.57;;;15.50;96.60;;;;;;5011749;28;20428;-69
2022/05/06 07:34:10;;;;;;;9.53;8.50;;;15.70;95.90;;;;;;5013360;28;20413;-70
2022/05/06 07:36:41;;;;;;;8.80;8.00;;;15.80;96.80;;;;;;5012893;28;20459;-69
2022/05/06 07:39:11;;;;;;;10.23;8.53;;;16.00;96.00;;;;;;5012945;28;20409;-70
2022/05/06 07:41:38;;;;;;;10.63;9.73;;;16.20;96.10;;;;;;5012676;28;20550;-70
2022/05/06 07:44:04;;;;;;;9.47;8.67;;;16.40;95.50;;;;;;5012236;28;20500;-69
2022/05/06 07:46:34;;;;;;;10.00;8.53;;;16.50;94.90;;;;;;5011289;28;20532;-69
2022/05/06 07:49:00;;;;;;;9.20;8.27;;;16.70;93.70;;;;;;5013516;28;20565;-69
2022/05/06 07:51:27;;;;;;;9.93;7.90;;;16.80;93.70;;;;;;5012196;28;20465;-69
2022/05/06 07:53:55;;;;;;;9.27;8.30;;;16.90;93.50;;;;;;5013719;28;20413;-69
2022/05/06 07:56:22;;;;;;;8.83;8.03;;;17.10;92.10;;;;;;5013365;28;20491;-69
2022/05/06 07:58:49;;;;;;;9.10;8.23;;;17.30;91.90;;;;;;5012732;28;20425;-69
2022/05/06 08:01:15;;;;;;;8.77;7.97;;;17.50;91.00;;;;;;5012362;28;20953;-69
2022/05/06 08:06:25;;;;;;;8.90;7.43;;;17.90;91.00;;;;;;5011293;28;20276;-69
2022/05/06 08:08:51;;;;;;;10.87;8.67;;;18.10;90.30;;;;;;5012263;28;20483;-69
2022/05/06 08:11:17;;;;;;;10.30;8.93;;;18.30;90.00;;;;;;5011260;28;20631;-69
2022/05/06 08:13:44;;;;;;;12.03;9.57;;;18.50;90.60;;;;;;5004280;28;20213;-69
2022/05/06 08:16:10;;;;;;;11.20;9.37;;;18.70;82.80;;;;;;5008830;28;20791;-69
2022/05/06 08:18:36;;;;;;;9.20;8.30;;;18.70;82.10;;;;;;5000114;28;20831;-69
2022/05/06 08:21:03;;;;;;;9.43;8.43;;;18.90;83.10;;;;;;5010793;28;20458;-69
2022/05/06 08:23:29;;;;;;;8.50;7.70;;;19.10;83.80;;;;;;5000131;28;20801;-69
2022/05/06 08:25:55;;;;;;;8.77;7.87;;;19.30;83.00;;;;;;5011405;28;20922;-69
2022/05/06 08:28:22;;;;;;;8.50;7.70;;;19.40;83.90;;;;;;5011706;28;20425;-70
2022/05/06 08:30:52;;;;;;;8.40;7.63;;;19.60;84.50;;;;;;5011365;28;20418;-69
2022/05/06 08:33:17;;;;;;;9.40;7.80;;;19.80;85.00;;;;;;5011854;28;20483;-68
2022/05/06 08:35:44;;;;;;;10.50;8.50;;;20.00;83.50;;;;;;5012895;28;20893;-68
2022/05/06 08:38:10;;;;;;;8.90;8.00;;;20.20;84.30;;;;;;5012696;28;20179;-80
2022/05/06 08:40:36;;;;;;;10.70;7.70;;;20.40;84.70;;;;;;5012757;28;20414;-68
2022/05/06 08:43:06;;;;;;;9.60;8.80;;;20.60;78.90;;;;;;5012734;28;20424;-68
2022/05/06 08:51:03;;;;;;;8.77;7.97;;;21.10;77.50;;;;;;5012881;28;20406;-68
2022/05/06 08:53:33;;;;;;;9.40;8.37;;;21.30;79.00;;;;;;5012175;28;20441;-69
2022/05/06 08:56:02;;;;;;;10.93;10.03;;;21.40;77.40;;;;;;5012832;28;20402;-68
2022/05/06 08:58:34;;;;;;;10.27;9.40;;;21.60;77.50;;;;;;5012156;28;20771;-68
2022/05/06 09:01:09;;;;;;;9.83;9.10;;;21.70;75.10;;;;;;5013029;28;20450;-68
2022/05/06 09:03:38;;;;;;;9.67;8.67;;;21.70;73.90;;;;;;5012095;28;20405;-69
2022/05/06 09:06:04;;;;;;;8.83;8.03;;;21.80;73.40;;;;;;5012749;28;20429;-68
2022/05/06 09:08:42;;;;;;;9.50;8.60;;;21.90;76.20;;;;;;5012013;28;20428;-68
2022/05/06 09:11:08;;;;;;;8.20;7.40;;;22.10;74.80;;;;;;5012451;28;20429;-69
2022/05/06 09:13:38;;;;;;;8.17;7.43;;;22.20;75.00;;;;;;5011964;28;20838;-69
2022/05/06 09:19:20;;;;;;;9.43;7.60;;;22.40;71.70;;;;;;5016435;28;20436;-69
2022/05/06 09:22:17;;;;;;;9.47;7.93;;;22.60;71.50;;;;;;5016325;28;20449;-69
2022/05/06 09:24:50;;;;;;;9.60;7.77;;;22.70;73.20;;;;;;5016529;28;20418;-69
2022/05/06 09:27:18;;;;;;;11.20;9.23;;;22.80;68.50;;;;;;5015809;28;20398;-69
2022/05/06 09:29:51;;;;;;;8.60;7.80;;;22.60;62.10;;;;;;5014992;28;20894;-68
2022/05/06 09:32:21;;;;;;;8.40;7.70;;;22.30;66.30;;;;;;5015583;28;20880;-69
2022/05/06 09:34:55;;;;;;;8.30;7.60;;;22.50;69.10;;;;;;5016327;28;20410;-69
2022/05/06 09:37:46;;;;;;;10.07;8.50;;;22.50;68.30;;;;;;5015196;28;20877;-68
2022/05/06 09:40:29;;;;;;;9.50;8.50;;;22.70;68.30;;;;;;5016104;28;20429;-69
2022/05/06 09:42:55;;;;;;;8.77;7.90;;;22.90;67.90;;;;;;5015685;28;20941;-68
2022/05/06 09:45:33;;;;;;;8.93;8.03;;;22.90;66.30;;;;;;5014909;28;20426;-69
2022/05/06 09:48:03;;;;;;;9.90;8.90;;;23.00;65.30;;;;;;5015735;28;20418;-69
2022/05/06 09:50:39;;;;;;;9.50;8.80;;;23.00;66.30;;;;;;5014841;28;20426;-69
2022/05/06 09:53:08;;;;;;;9.13;8.33;;;23.30;69.70;;;;;;5015935;28;20405;-69
2022/05/06 09:55:36;;;;;;;9.47;8.67;;;23.40;66.20;;;;;;5015165;28;20711;-69
2022/05/06 09:58:02;;;;;;;7.80;7.20;;;23.40;66.30;;;;;;5015504;28;20508;-69
2022/05/06 10:00:28;;;;;;;7.50;6.80;;;23.40;61.90;;;;;;5013826;28;20900;-69
2022/05/06 10:02:58;;;;;;;8.23;7.63;;;23.40;63.30;;;;;;5015234;28;20645;-69
2022/05/06 10:05:25;;;;;;;8.30;7.50;;;23.40;62.50;;;;;;5015212;28;20906;-68
2022/05/06 10:07:58;;;;;;;8.10;7.40;;;23.60;61.90;;;;;;5015509;28;20425;-69
2022/05/06 10:10:29;;;;;;;7.90;7.10;;;23.70;60.10;;;;;;5014922;28;20399;-69
2022/05/06 10:13:01;;;;;;;7.77;7.17;;;23.80;61.80;;;;;;5015207;28;20886;-69
2022/05/06 10:15:29;;;;;;;7.83;7.27;;;23.80;58.60;;;;;;5014960;28;20414;-69
2022/05/06 10:18:01;;;;;;;8.63;8.00;;;23.60;59.70;;;;;;5015484;28;20480;-69
2022/05/06 10:20:36;;;;;;;10.27;9.30;;;23.50;65.70;;;;;;5014674;28;20426;-69
2022/05/06 10:23:07;;;;;;;9.17;8.27;;;23.40;61.70;;;;;;5015211;28;20479;-69
2022/05/06 10:25:42;;;;;;;10.13;9.23;;;23.50;66.00;;;;;;5013993;28;20891;-69
2022/05/06 10:34:07;;;;;;;7.40;6.80;;;23.80;59.90;;;;;;5015021;28;20406;-69
2022/05/06 10:36:50;;;;;;;8.40;7.83;;;23.90;62.20;;;;;;5014463;28;20513;-68
2022/05/06 10:39:20;;;;;;;7.60;6.90;;;23.90;58.30;;;;;;5014684;28;20476;-69
2022/05/06 10:42:09;;;;;;;7.97;7.30;;;23.90;58.30;;;;;;5014871;28;20544;-69
2022/05/06 10:44:34;;;;;;;7.47;6.97;;;23.90;58.20;;;;;;5013866;28;20925;-69
2022/05/06 10:47:23;;;;;;;8.87;8.17;;;24.00;58.20;;;;;;5014280;28;20429;-69
2022/05/06 10:49:50;;;;;;;8.77;8.00;;;24.10;59.80;;;;;;5014468;28;20258;-69
2022/05/06 10:52:24;;;;;;;7.80;7.00;;;24.30;59.50;;;;;;5014631;28;20784;-69
2022/05/06 10:55:00;;;;;;;8.13;7.53;;;24.40;59.70;;;;;;5013328;28;20767;-69
2022/05/06 10:57:28;;;;;;;7.67;7.07;;;24.50;60.20;;;;;;5013772;28;20414;-69
2022/05/06 10:59:57;;;;;;;8.97;8.20;;;24.60;57.00;;;;;;5014384;28;20436;-69
2022/05/06 11:02:23;;;;;;;7.87;7.17;;;24.50;57.40;;;;;;5013721;28;20493;-69
2022/05/06 11:04:57;;;;;;;9.57;8.30;;;24.40;57.30;;;;;;5014401;28;20422;-69
2022/05/06 11:07:23;;;;;;;11.10;10.07;;;24.20;56.80;;;;;;5013017;28;20464;-77
2022/05/06 11:09:51;;;;;;;10.50;9.50;;;24.00;57.80;;;;;;5014022;28;20457;-69
2022/05/06 11:12:34;;;;;;;12.63;11.47;;;23.80;59.50;;;;;;5014409;28;20418;-69
2022/05/06 11:15:03;;;;;;;10.67;9.77;;;23.60;59.00;;;;;;5014358;28;20508;-69
2022/05/06 11:17:32;;;;;;;10.40;9.40;;;23.30;59.30;;;;;;5013616;28;20457;-69
2022/05/06 11:20:15;;;;;;;9.43;8.70;;;23.10;59.40;;;;;;5014188;28;20501;-68
2022/05/06 11:22:58;;;;;;;9.67;8.20;;;22.80;58.90;;;;;;5013522;28;20457;-68
2022/05/06 11:25:28;;;;;;;8.53;7.80;;;22.70;60.00;;;;;;5013493;28;20910;-69
2022/05/06 11:27:56;;;;;;;7.93;7.33;;;22.80;61.30;;;;;;5014124;28;20957;-69
2022/05/06 11:30:23;;;;;;;9.30;8.17;;;22.90;61.50;;;;;;5013181;28;20443;-77
2022/05/06 11:32:51;;;;;;;8.90;8.10;;;22.90;55.10;;;;;;5012508;28;20428;-69
2022/05/06 11:35:25;;;;;;;8.43;7.70;;;23.00;58.50;;;;;;5014088;28;20467;-70
2022/05/06 11:37:51;;;;;;;7.37;6.87;;;23.20;57.60;;;;;;5013953;28;20417;-70
2022/05/06 11:42:50;;;;;;;7.67;7.17;;;23.40;57.80;;;;;;5013802;28;20207;-69
2022/05/06 11:48:10;;;;;;;9.70;8.90;;;23.40;60.00;;;;;;5014015;28;20179;-69
2022/05/06 11:50:38;;;;;;;11.03;9.53;;;23.30;59.80;;;;;;5013069;28;20441;-69
2022/05/06 11:53:07;;;;;;;10.20;9.23;;;23.20;59.80;;;;;;5013610;28;20429;-69
2022/05/06 11:55:35;;;;;;;10.40;9.50;;;23.10;59.70;;;;;;5012876;28;20459;-69
2022/05/06 11:58:00;;;;;;;8.73;7.93;;;23.00;61.00;;;;;;5013502;28;20502;-69
2022/05/06 12:00:28;;;;;;;10.00;9.10;;;23.10;62.40;;;;;;5012882;28;20494;-70
2022/05/06 12:02:54;;;;;;;9.43;8.70;;;23.20;62.60;;;;;;5013080;28;20203;-69
2022/05/06 12:05:20;;;;;;;10.17;9.27;;;23.30;62.70;;;;;;5011603;28;20445;-70
2022/05/06 12:07:47;;;;;;;8.87;8.17;;;23.60;60.00;;;;;;5012441;28;20171;-69
2022/05/06 12:10:29;;;;;;;10.13;9.23;;;23.70;59.90;;;;;;5012066;28;20178;-70
2022/05/06 12:13:01;;;;;;;8.83;8.13;;;23.90;60.50;;;;;;5011841;28;20436;-69
2022/05/06 12:15:31;;;;;;;11.10;10.00;;;24.10;57.20;;;;;;5012829;28;20410;-70
2022/05/06 12:18:09;;;;;;;11.97;10.87;;;24.20;57.20;;;;;;5012844;28;20492;-70
2022/05/06 12:20:48;;;;;;;10.40;9.40;;;24.30;55.70;;;;;;5012680;28;20529;-69
2022/05/06 12:23:14;;;;;;;11.20;10.00;;;24.40;57.20;;;;;;5013290;28;20437;-70
2022/05/06 12:25:41;;;;;;;14.87;13.67;;;24.50;58.60;;;;;;5012499;28;20414;-70
2022/05/06 12:28:18;;;;;;;14.27;13.10;;;24.60;60.90;;;;;;5013085;28;20441;-69
2022/05/06 12:30:45;;;;;;;14.47;13.37;;;24.70;59.50;;;;;;5012211;28;20444;-70
2022/05/06 12:33:17;;;;;;;14.53;13.40;;;24.70;61.40;;;;;;5013027;28;20417;-70
2022/05/06 12:36:04;;;;;;;17.40;16.10;;;24.80;60.60;;;;;;5010958;28;20394;-70
2022/05/06 12:38:39;;;;;;;18.50;16.90;;;24.70;58.50;;;;;;5011134;28;20418;-70
2022/05/06 12:41:22;;;;;;;16.37;15.03;;;24.50;58.50;;;;;;5012520;28;20457;-69
2022/05/06 12:43:50;;;;;;;18.87;17.17;;;24.40;58.10;;;;;;5010508;28;20433;-70
2022/05/06 12:46:35;;;;;;;17.63;16.13;;;24.40;57.00;;;;;;5012735;28;20453;-70
2022/05/06 12:51:46;;;;;;;17.00;15.40;;;24.20;60.60;;;;;;5018726;28;20493;-69
2022/05/06 12:54:12;;;;;;;16.27;14.93;;;24.00;59.20;;;;;;5019060;28;20477;-70
2022/05/06 12:56:39;;;;;;;17.40;15.73;;;23.90;59.20;;;;;;5018744;28;20414;-69
2022/05/06 12:59:06;;;;;;;18.13;16.63;;;23.80;59.30;;;;;;5019297;28;20406;-69
2022/05/06 13:01:33;;;;;;;17.40;15.93;;;23.70;57.80;;;;;;5018561;28;20472;-70
2022/05/06 13:03:59;;;;;;;19.77;18.07;;;23.60;59.50;;;;;;5019341;28;20406;-70
2022/05/06 13:06:25;;;;;;;17.00;15.60;;;23.50;62.60;;;;;;5019178;28;20939;-69
2022/05/06 13:08:51;;;;;;;17.63;16.23;;;23.50;65.20;;;;;;5018316;28;20186;-69
2022/05/06 13:11:17;;;;;;;18.07;16.60;;;23.60;63.90;;;;;;5019132;28;20424;-70
2022/05/06 13:13:43;;;;;;;18.63;17.03;;;23.70;61.50;;;;;;5018593;28;20582;-69
2022/05/06 13:16:12;;;;;;;17.97;16.43;;;23.80;62.30;;;;;;5019055;28;20921;-70
2022/05/06 13:18:39;;;;;;;18.67;16.57;;;23.90;58.80;;;;;;5018334;28;20198;-69
2022/05/06 13:21:05;;;;;;;22.20;20.30;;;24.00;59.20;;;;;;5018078;28;20809;-69
2022/05/06 13:23:31;;;;;;;18.73;17.03;;;24.10;60.50;;;;;;5017100;28;20459;-69
2022/05/06 13:25:57;;;;;;;17.13;15.60;;;24.20;62.30;;;;;;5019122;28;20254;-70
2022/05/06 13:28:23;;;;;;;17.83;16.33;;;24.20;61.40;;;;;;5019040;28;20183;-69
2022/05/06 13:30:48;;;;;;;13.70;12.70;;;24.30;58.90;;;;;;5018171;28;20479;-69
2022/05/06 13:33:14;;;;;;;14.80;13.63;;;24.30;58.10;;;;;;5019051;28;20421;-69
2022/05/06 13:35:41;;;;;;;13.80;12.40;;;24.30;58.70;;;;;;5017453;28;20187;-70
2022/05/06 13:38:07;;;;;;;13.90;12.90;;;24.30;56.70;;;;;;5018905;28;20468;-70
2022/05/06 13:40:33;;;;;;;14.37;13.37;;;24.30;58.10;;;;;;5017979;28;20836;-70